createdAt,value
2023-04-17T00:01:40.271Z,40.72
2023-04-17T00:04:10.773Z,36.20
2023-04-17T00:06:43.637Z,37.20
2023-04-17T00:09:12.037Z,40.17
2023-04-17T00:11:40.416Z,36.22
2023-04-17T00:14:08.408Z,35.72
2023-04-17T00:16:36.314Z,30.67
2023-04-17T00:19:04.167Z,33.88
2023-04-17T00:21:32.291Z,33.63
2023-04-17T00:24:01.732Z,29.42
2023-04-17T00:26:29.888Z,33.78
2023-04-17T00:28:57.704Z,35.38
2023-04-17T00:31:25.683Z,34.85
2023-04-17T00:33:53.943Z,35.03
2023-04-17T00:36:24.549Z,37.33
2023-04-17T00:38:52.413Z,33.38
2023-04-17T00:41:21.827Z,35.40
2023-04-17T00:43:49.681Z,38.58
2023-04-17T00:46:17.905Z,37.72
2023-04-17T00:48:45.926Z,45.47
2023-04-17T00:51:13.722Z,44.08
2023-04-17T00:53:41.814Z,44.92
2023-04-17T00:56:10.820Z,47.75
2023-04-17T00:58:41.947Z,44.50
2023-04-17T01:01:09.727Z,45.97
2023-04-17T01:03:37.826Z,44.97
2023-04-17T01:06:06.191Z,50.08
2023-04-17T01:08:45.412Z,43.25
2023-04-17T01:11:13.488Z,53.83
2023-04-17T01:13:49.486Z,44.70
2023-04-17T01:16:17.771Z,48.38
2023-04-17T01:18:46.512Z,54.63
2023-04-17T01:21:14.571Z,59.30
2023-04-17T01:23:49.903Z,51.13
2023-04-17T01:26:21.148Z,50.10
2023-04-17T01:29:07.535Z,47.67
2023-04-17T01:31:35.345Z,50.38
2023-04-17T01:34:03.170Z,49.67
2023-04-17T01:36:31.770Z,48.47
2023-04-17T01:38:59.711Z,52.97
2023-04-17T01:41:27.495Z,52.60
2023-04-17T01:43:55.317Z,48.80
2023-04-17T01:46:24.892Z,43.92
2023-04-17T01:48:53.451Z,50.35
2023-04-17T01:51:21.513Z,42.00
2023-04-17T01:53:49.314Z,44.55
2023-04-17T01:56:18.071Z,41.97
2023-04-17T01:58:45.908Z,47.30
2023-04-17T02:01:14.825Z,52.10
2023-04-17T02:03:44.162Z,51.88
2023-04-17T02:06:12.100Z,48.50
2023-04-17T02:08:39.863Z,44.33
2023-04-17T02:11:07.996Z,43.63
2023-04-17T02:13:35.861Z,42.13
2023-04-17T02:16:03.628Z,48.92
2023-04-17T02:18:31.391Z,47.20
2023-04-17T02:21:00.818Z,48.65
2023-04-17T02:23:28.672Z,49.88
2023-04-17T02:25:56.525Z,45.70
2023-04-17T02:28:24.601Z,40.03
2023-04-17T02:30:52.353Z,51.22
2023-04-17T02:33:20.278Z,47.10
2023-04-17T02:35:48.259Z,49.15
2023-04-17T02:38:17.688Z,55.55
2023-04-17T02:40:45.529Z,52.67
2023-04-17T02:43:14.133Z,49.72
2023-04-17T02:45:41.948Z,52.53
2023-04-17T02:48:10.431Z,45.55
2023-04-17T02:50:38.252Z,43.95
2023-04-17T02:53:06.018Z,54.63
2023-04-17T02:55:35.327Z,47.72
2023-04-17T02:58:03.170Z,43.67
2023-04-17T03:00:31.181Z,42.63
2023-04-17T03:02:59.045Z,42.55
2023-04-17T03:05:30.367Z,41.92
2023-04-17T03:07:58.928Z,40.05
2023-04-17T03:10:26.976Z,34.83
2023-04-17T03:12:56.259Z,39.97
2023-04-17T03:15:24.372Z,33.05
2023-04-17T03:17:52.255Z,29.88
2023-04-17T03:20:20.145Z,37.15
2023-04-17T03:22:52.198Z,36.95
2023-04-17T03:25:23.662Z,35.03
2023-04-17T03:27:51.573Z,31.13
2023-04-17T03:30:21.024Z,39.38
2023-04-17T03:32:48.989Z,36.88
2023-04-17T03:35:16.870Z,35.65
2023-04-17T03:37:44.618Z,36.08
2023-04-17T03:40:12.835Z,29.30
2023-04-17T03:42:40.690Z,32.17
2023-04-17T03:45:10.110Z,30.88
2023-04-17T03:47:39.318Z,33.65
2023-04-17T03:50:08.265Z,33.30
2023-04-17T03:52:36.012Z,27.42
2023-04-17T03:55:04.048Z,30.35
2023-04-17T03:57:31.989Z,30.45
2023-04-17T03:59:59.834Z,27.48
2023-04-17T04:02:27.788Z,29.25
2023-04-17T04:04:57.252Z,33.75
2023-04-17T04:07:25.274Z,29.27
2023-04-17T04:09:53.267Z,32.05
2023-04-17T04:12:23.002Z,28.42
2023-04-17T04:14:50.814Z,25.80
2023-04-17T04:17:18.734Z,26.73
2023-04-17T04:19:47.965Z,27.20
2023-04-17T04:22:18.690Z,31.65
2023-04-17T04:24:47.391Z,31.45
2023-04-17T04:27:18.263Z,33.38
2023-04-17T04:29:48.942Z,33.90
2023-04-17T04:32:17.069Z,32.28
2023-04-17T04:34:45.777Z,34.05
2023-04-17T04:37:15.655Z,33.47
2023-04-17T04:39:47.364Z,34.63
2023-04-17T04:42:21.947Z,34.97
2023-04-17T04:44:50.018Z,35.25
2023-04-17T04:47:20.061Z,32.45
2023-04-17T04:49:48.324Z,36.13
2023-04-17T04:52:16.225Z,31.63
2023-04-17T04:54:45.481Z,33.55
2023-04-17T04:57:15.846Z,35.42
2023-04-17T04:59:44.850Z,35.65
2023-04-17T05:02:17.864Z,33.88
2023-04-17T05:04:49.973Z,36.10
2023-04-17T05:07:17.954Z,35.38
2023-04-17T05:09:54.858Z,35.65
2023-04-17T05:12:22.696Z,32.38
2023-04-17T05:14:50.554Z,42.55
2023-04-17T05:17:18.793Z,34.38
2023-04-17T05:19:47.742Z,38.63
2023-04-17T05:22:15.919Z,33.10
2023-04-17T05:24:43.953Z,41.05
2023-04-17T05:27:13.080Z,39.25
2023-04-17T05:29:40.886Z,40.40
2023-04-17T05:32:08.813Z,41.55
2023-04-17T05:34:36.810Z,45.40
2023-04-17T05:37:04.599Z,40.90
2023-04-17T05:39:32.389Z,41.28
2023-04-17T05:42:00.282Z,48.53
2023-04-17T05:44:29.418Z,40.20
2023-04-17T05:47:00.177Z,36.97
2023-04-17T05:49:28.037Z,42.65
2023-04-17T05:51:56.035Z,38.10
2023-04-17T05:54:23.861Z,36.25
2023-04-17T05:56:52.233Z,37.50
2023-04-17T05:59:21.150Z,34.90
2023-04-17T06:01:51.010Z,37.58
2023-04-17T06:04:19.148Z,37.70
2023-04-17T06:06:47.330Z,33.72
2023-04-17T06:09:15.887Z,35.85
2023-04-17T06:11:43.694Z,36.85
2023-04-17T06:14:11.489Z,35.85
2023-04-17T06:16:39.388Z,34.88
2023-04-17T06:19:08.654Z,31.58
2023-04-17T06:21:36.438Z,34.05
2023-04-17T06:24:04.628Z,35.53
2023-04-17T06:26:35.359Z,37.53
2023-04-17T06:29:03.792Z,32.13
2023-04-17T06:31:31.833Z,33.95
2023-04-17T06:34:05.686Z,38.13
2023-04-17T06:36:35.250Z,34.03
2023-04-17T06:39:03.359Z,31.98
2023-04-17T06:41:31.284Z,32.15
2023-04-17T06:44:01.482Z,37.95
2023-04-17T06:46:29.426Z,31.38
2023-04-17T06:48:59.952Z,33.13
2023-04-17T06:51:35.380Z,36.58
2023-04-17T06:54:03.377Z,32.05
2023-04-17T06:56:33.417Z,36.95
2023-04-17T06:59:02.988Z,37.88
2023-04-17T07:01:31.490Z,35.38
2023-04-17T07:03:59.575Z,33.05
2023-04-17T07:06:46.610Z,33.75
2023-04-17T07:09:16.512Z,38.55
2023-04-17T07:11:44.850Z,32.63
2023-04-17T07:14:13.019Z,31.08
2023-04-17T07:16:51.799Z,36.05
2023-04-17T07:19:21.347Z,30.98
2023-04-17T07:21:49.414Z,31.83
2023-04-17T07:24:19.008Z,28.20
2023-04-17T07:26:47.164Z,28.70
2023-04-17T07:29:15.636Z,33.03
2023-04-17T07:31:43.825Z,34.60
2023-04-17T07:34:11.636Z,38.28
2023-04-17T07:36:39.763Z,36.72
2023-04-17T07:39:08.117Z,32.97
2023-04-17T07:41:37.467Z,30.50
2023-04-17T07:44:07.186Z,34.00
2023-04-17T07:46:35.321Z,39.47
2023-04-17T07:49:04.656Z,34.83
2023-04-17T07:51:33.120Z,33.35
2023-04-17T07:54:01.529Z,37.47
2023-04-17T07:56:32.164Z,35.50
2023-04-17T07:59:02.745Z,35.58
2023-04-17T08:01:32.113Z,44.05
2023-04-17T08:04:00.511Z,32.47
2023-04-17T08:06:28.526Z,32.55
2023-04-17T08:08:56.794Z,34.20
2023-04-17T08:11:24.757Z,34.75
2023-04-17T08:13:52.834Z,41.03
2023-04-17T08:16:22.413Z,34.05
2023-04-17T08:18:50.510Z,36.78
2023-04-17T08:21:20.267Z,33.47
2023-04-17T08:23:51.463Z,33.08
2023-04-17T08:26:22.582Z,33.80
2023-04-17T08:28:53.820Z,39.47
2023-04-17T08:31:23.513Z,46.88
2023-04-17T08:34:02.812Z,37.92
2023-04-17T08:36:41.451Z,33.85
2023-04-17T08:39:14.639Z,38.88
2023-04-17T08:41:50.417Z,34.22
2023-04-17T08:44:23.035Z,34.70
2023-04-17T08:46:53.895Z,36.90
2023-04-17T08:49:21.913Z,36.72
2023-04-17T08:51:50.854Z,35.35
2023-04-17T08:54:19.965Z,36.90
2023-04-17T08:56:48.098Z,37.90
2023-04-17T08:59:17.197Z,39.85
2023-04-17T09:02:05.310Z,38.42
2023-04-17T09:04:41.853Z,40.38
2023-04-17T09:07:11.559Z,38.83
2023-04-17T09:09:53.012Z,37.60
2023-04-17T09:12:21.900Z,37.97
2023-04-17T09:14:50.097Z,41.67
2023-04-17T09:17:20.678Z,40.30
2023-04-17T09:20:11.985Z,38.42
2023-04-17T09:22:42.426Z,39.30
2023-04-17T09:25:18.248Z,36.03
2023-04-17T09:27:46.841Z,33.47
2023-04-17T09:30:15.056Z,38.20
2023-04-17T09:32:44.576Z,38.33
2023-04-17T09:35:24.565Z,40.10
2023-04-17T09:37:54.183Z,35.28
2023-04-17T09:40:23.517Z,32.25
2023-04-17T09:42:56.495Z,37.95
2023-04-17T09:45:25.595Z,32.63
2023-04-17T09:47:56.173Z,38.90
2023-04-17T09:50:25.788Z,34.40
2023-04-17T09:52:55.494Z,32.30
2023-04-17T09:55:24.870Z,34.97
2023-04-17T09:57:55.537Z,37.42
2023-04-17T10:00:27.110Z,33.72
2023-04-17T10:02:58.148Z,37.58
2023-04-17T10:05:29.056Z,33.60
2023-04-17T10:07:57.869Z,32.17
2023-04-17T10:10:26.925Z,33.08
2023-04-17T10:12:59.889Z,34.72
2023-04-17T10:15:28.580Z,32.63
2023-04-17T10:18:23.026Z,32.22
2023-04-17T10:20:53.374Z,32.67
2023-04-17T10:23:32.863Z,30.85
2023-04-17T10:26:43.572Z,27.75
2023-04-17T10:29:12.779Z,29.23
2023-04-17T10:32:25.851Z,30.55
2023-04-17T10:34:57.193Z,25.92
2023-04-17T10:37:58.469Z,25.77
2023-04-17T10:40:30.522Z,23.73
2023-04-17T10:43:09.734Z,29.30
2023-04-17T10:45:54.516Z,29.50
2023-04-17T10:48:26.597Z,28.63
2023-04-17T10:50:56.250Z,30.00
2023-04-17T10:53:44.596Z,25.58
2023-04-17T10:56:18.150Z,24.63
2023-04-17T10:59:02.540Z,25.55
2023-04-17T11:01:31.790Z,24.98
2023-04-17T11:04:00.554Z,22.10
2023-04-17T11:06:32.505Z,27.30
2023-04-17T11:09:01.401Z,22.25
2023-04-17T11:11:43.559Z,25.08
2023-04-17T11:14:14.657Z,18.85
2023-04-17T11:16:46.053Z,26.08
2023-04-17T11:19:19.399Z,22.45
2023-04-17T11:21:50.326Z,21.80
2023-04-17T11:24:24.069Z,21.33
2023-04-17T11:29:20.774Z,22.00
2023-04-17T11:31:49.843Z,24.02
2023-04-17T11:34:17.846Z,20.17
2023-04-17T11:36:51.940Z,20.50
2023-04-17T11:39:20.126Z,23.92
2023-04-17T11:41:48.208Z,19.58
2023-04-17T11:44:16.790Z,23.05
2023-04-17T11:46:49.886Z,19.95
2023-04-17T11:49:17.722Z,25.55
2023-04-17T11:51:46.284Z,19.25
2023-04-17T11:54:26.140Z,20.70
2023-04-17T11:56:59.975Z,23.27
2023-04-17T11:59:32.053Z,23.98
2023-04-17T12:02:00.820Z,18.95
2023-04-17T12:04:30.221Z,19.73
2023-04-17T12:06:59.787Z,19.30
2023-04-17T12:09:31.867Z,20.50
2023-04-17T12:12:00.252Z,20.95
2023-04-17T12:14:28.088Z,20.85
2023-04-17T12:16:55.910Z,22.27
2023-04-17T12:19:25.556Z,21.38
2023-04-17T12:21:54.512Z,24.40
2023-04-17T12:24:24.890Z,19.05
2023-04-17T12:26:54.832Z,19.70
2023-04-17T12:29:36.302Z,18.38
2023-04-17T12:32:11.590Z,21.45
2023-04-17T12:34:39.491Z,18.27
2023-04-17T12:37:07.317Z,19.67
2023-04-17T12:39:35.078Z,17.30
2023-04-17T12:42:04.572Z,20.20
2023-04-17T12:44:32.341Z,19.08
2023-04-17T12:47:00.118Z,19.50
2023-04-17T12:49:27.951Z,19.58
2023-04-17T12:51:56.154Z,22.23
2023-04-17T12:54:23.905Z,24.10
2023-04-17T12:56:51.682Z,22.25
2023-04-17T12:59:20.909Z,22.45
2023-04-17T13:01:48.995Z,19.38
2023-04-17T13:04:17.168Z,20.40
2023-04-17T13:06:45.321Z,29.73
2023-04-17T13:09:13.181Z,20.75
2023-04-17T13:11:41.282Z,22.80
2023-04-17T13:14:09.109Z,22.83
2023-04-17T13:16:38.322Z,20.88
2023-04-17T13:19:06.313Z,23.42
2023-04-17T13:21:34.187Z,21.35
2023-04-17T13:24:02.061Z,23.23
2023-04-17T13:26:30.009Z,20.27
2023-04-17T13:28:57.923Z,23.77
2023-04-17T13:31:27.706Z,25.75
2023-04-17T13:33:56.942Z,22.38
2023-04-17T13:36:24.925Z,21.33
2023-04-17T13:38:52.727Z,21.55
2023-04-17T13:41:20.952Z,22.95
2023-04-17T13:43:48.817Z,29.08
2023-04-17T13:46:17.198Z,22.27
2023-04-17T13:48:45.082Z,19.60
2023-04-17T13:51:15.157Z,24.35
2023-04-17T13:53:43.180Z,22.27
2023-04-17T13:56:11.242Z,24.55
2023-04-17T13:58:40.429Z,20.67
2023-04-17T14:01:09.058Z,23.33
2023-04-17T14:03:39.749Z,22.33
2023-04-17T14:06:08.928Z,26.10
2023-04-17T14:08:38.549Z,21.35
2023-04-17T14:11:06.560Z,19.88
2023-04-17T14:13:34.438Z,20.05
2023-04-17T14:16:02.739Z,22.25
2023-04-17T14:18:30.528Z,19.80
2023-04-17T14:21:01.293Z,19.67
2023-04-17T14:23:29.343Z,20.70
2023-04-17T14:26:01.576Z,24.65
2023-04-17T14:28:29.680Z,19.75
2023-04-17T14:31:01.207Z,25.63
2023-04-17T14:33:29.579Z,23.90
2023-04-17T14:35:57.581Z,20.95
2023-04-17T14:38:25.534Z,18.67
2023-04-17T14:40:53.884Z,25.00
2023-04-17T14:43:23.170Z,21.70
2023-04-17T14:45:51.449Z,20.77
2023-04-17T14:48:21.058Z,21.75
2023-04-17T14:50:48.941Z,21.48
2023-04-17T14:53:17.980Z,21.10
2023-04-17T14:55:47.361Z,22.88
2023-04-17T14:58:17.690Z,24.50
2023-04-17T15:00:47.163Z,23.58
2023-04-17T15:03:15.294Z,22.02
2023-04-17T15:05:46.391Z,17.75
2023-04-17T15:08:14.510Z,20.58
2023-04-17T15:10:50.586Z,20.50
2023-04-17T15:13:19.505Z,17.85
2023-04-17T15:15:48.962Z,20.58
2023-04-17T15:18:19.755Z,21.52
2023-04-17T15:20:47.856Z,20.85
2023-04-17T15:23:17.532Z,26.90
2023-04-17T15:25:45.693Z,24.52
2023-04-17T15:28:13.548Z,20.48
2023-04-17T15:30:41.501Z,23.80
2023-04-17T15:33:10.823Z,23.75
2023-04-17T15:35:38.976Z,22.80
2023-04-17T15:38:07.036Z,25.42
2023-04-17T15:40:34.938Z,23.52
2023-04-17T15:43:03.111Z,22.60
2023-04-17T15:45:30.908Z,28.48
2023-04-17T15:48:00.471Z,23.38
2023-04-17T15:50:29.677Z,17.38
2023-04-17T15:52:57.603Z,23.02
2023-04-17T15:55:25.517Z,20.48
2023-04-17T15:57:53.328Z,22.25
2023-04-17T16:00:22.110Z,20.65
2023-04-17T16:02:50.192Z,22.83
2023-04-17T16:05:19.133Z,21.67
2023-04-17T16:07:48.713Z,18.25
2023-04-17T16:10:16.988Z,18.98
2023-04-17T16:12:46.381Z,22.23
2023-04-17T16:15:16.267Z,18.15
2023-04-17T16:17:45.604Z,18.25
2023-04-17T16:20:15.356Z,24.70
2023-04-17T16:22:43.278Z,24.77
2023-04-17T16:25:13.389Z,19.63
2023-04-17T16:27:41.512Z,19.67
2023-04-17T16:30:10.967Z,19.42
2023-04-17T16:32:38.819Z,17.55
2023-04-17T16:35:07.549Z,23.33
2023-04-17T16:37:35.420Z,22.17
2023-04-17T16:40:05.278Z,19.38
2023-04-17T16:42:34.875Z,17.92
2023-04-17T16:45:28.163Z,13.52
2023-04-17T16:47:56.454Z,17.42
2023-04-17T16:50:25.674Z,20.45
2023-04-17T16:52:53.681Z,16.33
2023-04-17T16:55:21.873Z,16.20
2023-04-17T16:57:51.486Z,23.63
2023-04-17T17:00:19.690Z,17.92
2023-04-17T17:02:47.606Z,21.60
2023-04-17T17:05:16.018Z,17.35
2023-04-17T17:07:43.889Z,15.63
2023-04-17T17:10:12.263Z,15.43
2023-04-17T17:12:40.221Z,16.38
2023-04-17T17:15:10.496Z,18.52
2023-04-17T17:17:38.923Z,18.25
2023-04-17T17:20:08.690Z,17.17
2023-04-17T17:22:36.623Z,14.30
2023-04-17T17:25:04.701Z,15.25
2023-04-17T17:27:32.556Z,14.73
2023-04-17T17:30:00.811Z,16.55
2023-04-17T17:32:33.406Z,20.75
2023-04-17T17:35:01.236Z,21.13
2023-04-17T17:37:29.167Z,17.95
2023-04-17T17:39:58.866Z,17.02
2023-04-17T17:42:27.224Z,19.80
2023-04-17T17:44:55.546Z,17.90
2023-04-17T17:47:23.591Z,19.85
2023-04-17T17:49:56.462Z,19.35
2023-04-17T17:52:24.565Z,19.02
2023-04-17T17:54:52.536Z,21.33
2023-04-17T17:57:20.874Z,18.38
2023-04-17T17:59:48.989Z,17.67
2023-04-17T18:02:17.315Z,22.38
2023-04-17T18:04:45.712Z,20.27
2023-04-17T18:07:15.419Z,18.95
2023-04-17T18:09:43.507Z,21.63
2023-04-17T18:12:11.839Z,19.77
2023-04-17T18:14:40.254Z,21.15
2023-04-17T18:17:08.415Z,22.50
2023-04-17T18:19:40.866Z,18.30
2023-04-17T18:22:09.385Z,18.48
2023-04-17T18:24:39.099Z,22.35
2023-04-17T18:27:06.955Z,19.10
2023-04-17T18:29:34.946Z,23.80
2023-04-17T18:32:03.649Z,23.25
2023-04-17T18:34:31.815Z,26.42
2023-04-17T18:37:00.608Z,29.08
2023-04-17T18:39:28.934Z,23.73
2023-04-17T18:41:59.833Z,22.83
2023-04-17T18:44:28.609Z,20.88
2023-04-17T18:46:56.627Z,20.98
2023-04-17T18:49:24.800Z,22.48
2023-04-17T18:51:52.930Z,21.48
2023-04-17T18:54:20.962Z,25.40
2023-04-17T18:56:48.873Z,25.05
2023-04-17T18:59:19.942Z,21.55
2023-04-17T19:01:47.886Z,22.08
2023-04-17T19:04:16.538Z,24.13
2023-04-17T19:06:58.459Z,27.23
2023-04-17T19:09:27.001Z,24.95
2023-04-17T19:11:56.252Z,20.58
2023-04-17T19:14:25.968Z,24.25
2023-04-17T19:16:54.582Z,26.25
2023-04-17T19:19:22.550Z,23.65
2023-04-17T19:21:50.946Z,23.98
2023-04-17T19:24:19.013Z,25.88
2023-04-17T19:26:47.432Z,28.80
2023-04-17T19:29:17.406Z,36.63
2023-04-17T19:31:47.149Z,26.52
2023-04-17T19:34:15.775Z,26.15
2023-04-17T19:36:47.024Z,29.50
2023-04-17T19:39:16.120Z,28.27
2023-04-17T19:41:51.016Z,24.25
2023-04-17T19:44:22.150Z,26.50
2023-04-17T19:46:51.775Z,31.70
2023-04-17T19:49:19.916Z,27.33
2023-04-17T19:51:47.957Z,28.80
2023-04-17T19:54:16.160Z,26.83
2023-04-17T19:56:44.448Z,24.17
2023-04-17T19:59:13.698Z,27.17
2023-04-17T20:01:43.782Z,24.27
2023-04-17T20:04:16.718Z,24.38
2023-04-17T20:06:45.062Z,30.10
2023-04-17T20:09:14.805Z,27.00
2023-04-17T20:11:43.514Z,26.67
2023-04-17T20:14:14.746Z,24.95
2023-04-17T20:16:45.362Z,25.20
2023-04-17T20:19:15.762Z,29.38
2023-04-17T20:21:44.084Z,32.03
2023-04-17T20:24:12.945Z,26.20
2023-04-17T20:26:41.183Z,30.45
2023-04-17T20:29:09.166Z,26.55
2023-04-17T20:31:37.185Z,27.35
2023-04-17T20:34:05.333Z,27.63
2023-04-17T20:36:34.707Z,28.50
2023-04-17T20:39:02.637Z,30.48
2023-04-17T20:41:30.444Z,30.42
2023-04-17T20:43:59.513Z,33.83
2023-04-17T20:46:27.614Z,30.90
2023-04-17T20:48:55.746Z,29.05
2023-04-17T20:51:26.462Z,27.13
2023-04-17T20:53:56.477Z,28.60
2023-04-17T20:56:24.665Z,30.58
2023-04-17T20:58:52.542Z,31.27
2023-04-17T21:01:20.619Z,29.35
2023-04-17T21:03:48.884Z,29.08
2023-04-17T21:06:27.134Z,27.33
2023-04-17T21:09:01.893Z,25.40
2023-04-17T21:11:29.957Z,27.80
2023-04-17T21:14:00.794Z,29.88
2023-04-17T21:16:29.808Z,33.33
2023-04-17T21:18:57.833Z,28.55
2023-04-17T21:21:26.390Z,26.83
2023-04-17T21:23:54.523Z,27.17
2023-04-17T21:26:24.144Z,28.77
2023-04-17T21:28:52.155Z,31.48
2023-04-17T21:31:20.039Z,27.58
2023-04-17T21:33:48.247Z,30.00
2023-04-17T21:36:16.355Z,26.58
2023-04-17T21:38:52.491Z,24.55
2023-04-17T21:41:20.424Z,25.77
2023-04-17T21:43:49.908Z,26.98
2023-04-17T21:46:17.867Z,25.80
2023-04-17T21:48:45.922Z,25.83
2023-04-17T21:51:14.303Z,25.73
2023-04-17T21:53:44.148Z,28.50
2023-04-17T21:56:12.125Z,24.23
2023-04-17T21:58:40.508Z,24.77
2023-04-17T22:01:09.982Z,24.73
2023-04-17T22:03:39.685Z,25.60
2023-04-17T22:06:16.437Z,23.42
2023-04-17T22:08:44.473Z,25.17
2023-04-17T22:11:16.203Z,25.95
2023-04-17T22:13:45.016Z,28.17
2023-04-17T22:16:14.424Z,27.98
2023-04-17T22:18:42.339Z,27.30
2023-04-17T22:21:10.396Z,27.83
2023-04-17T22:24:33.747Z,25.55
2023-04-17T22:27:20.475Z,23.40
2023-04-17T22:30:05.641Z,23.90
2023-04-17T22:33:11.943Z,24.20
2023-04-17T22:36:34.901Z,23.13
2023-04-17T22:39:03.598Z,23.55
2023-04-17T22:41:49.923Z,23.90
2023-04-17T22:44:17.986Z,23.50
2023-04-17T22:46:45.884Z,22.05
2023-04-17T22:49:15.536Z,23.70
2023-04-17T22:51:44.600Z,21.85
2023-04-17T22:54:22.186Z,24.88
2023-04-17T22:56:51.291Z,25.95
2023-04-17T22:59:27.775Z,27.95
2023-04-17T23:01:55.998Z,27.30
2023-04-17T23:04:25.513Z,25.67
2023-04-17T23:06:54.002Z,25.15
2023-04-17T23:09:21.929Z,27.67
2023-04-17T23:11:49.987Z,23.75
2023-04-17T23:14:18.214Z,22.80
2023-04-17T23:16:46.193Z,24.45
2023-04-17T23:19:14.162Z,21.95
2023-04-17T23:21:43.411Z,28.65
2023-04-17T23:24:11.755Z,26.52
2023-04-17T23:26:39.769Z,26.63
2023-04-17T23:29:07.507Z,26.33
2023-04-17T23:31:35.687Z,29.92
2023-04-17T23:34:03.520Z,24.48
2023-04-17T23:36:31.820Z,26.70
2023-04-17T23:39:00.991Z,26.83
2023-04-17T23:41:29.682Z,30.85
2023-04-17T23:43:57.670Z,26.75
2023-04-17T23:46:25.505Z,29.42
2023-04-17T23:48:53.302Z,30.35
2023-04-17T23:51:21.138Z,32.25
2023-04-17T23:53:49.232Z,28.88
2023-04-17T23:56:22.088Z,32.10
2023-04-17T23:58:49.916Z,28.30
